Archival Weather

Norman Y Mineta San Jose Intl

San Jose, California (KSJC)

Report from: Saturday, February 10, 2024 2:53 AM PST
Current time: Saturday, June 22, 2024 1:42 AM PDT

Current weather – Weather history – Daily summaries
Weather forecast

Temperature6.7°C (44.1°F)
Dew point3.9°C (39.0°F)
Winds Calm
Visibility10 mi. (16.1 km)
Clouds Scattered clouds 1,100 ft. (335 m)
Altimeter30.12 in.Hg (1020 mB)
Relative humidity82 %
Density altitude-1,100 ft. (-335 m)
Sea-level pressure102.0 kPa (1020 mB, 30.11 in.Hg)
Remarks Fully automated report
Automated weather observing station with precipitation discriminator
Flight conditions Visual Meteorological Conditions
Raw dataKSJC 101053Z AUTO 00000KT 10SM SCT011 07/04 A3012 RMK AO2 SLP197 T00670039
An error has occurred. This application may no longer respond until reloaded. Reload 🗙